EZY75CE LDDU-EGKK
Flight info
| Callsign | EZY75CE |
|---|---|
| Flight time | 1h 10m |
| Altitude | 36000 |
| Route | AMUGO DCT UVODI DCT SAL DCT ROTAR DCT BORMI DCT RESIA DCT ELMUR DCT RIPUS DCT DITON DCT HOC DCT LUL DCT RLP DCT ROTSI DCT KOTUN DCT NINAL DCT KESAX DCT KUNAV |
| Aircraft | A320/M-SDE3FGHIRWY/LB1 |
Departure
| Time | 2026-05-07 14:28 |
|---|---|
| Airport | Dubrovnik Ruđer Bošković Airport (LDDU) |
Arrival
| Time | 2026-05-07 15:39 |
|---|---|
| Airport | London Gatwick Airport (EGKK) |
| Time | Latitude | Longitude | Altitude | Speed | Heading |
|---|---|---|---|---|---|
| 2026-05-07 14:07 | 42.56147 | 18.26154 | 534 ft | 0 kts | 208° |
| 2026-05-07 14:19 | 42.56165 | 18.26167 | 534 ft | 4 kts | 208° |
| 2026-05-07 14:19 | 42.56184 | 18.26181 | 534 ft | 4 kts | 219° |
| 2026-05-07 14:19 | 42.56194 | 18.26204 | 534 ft | 4 kts | 290° |
| 2026-05-07 14:20 | 42.56184 | 18.26233 | 534 ft | 2 kts | 298° |
| 2026-05-07 14:20 | 42.56183 | 18.26234 | 534 ft | 0 kts | 298° |
| 2026-05-07 14:22 | 42.56187 | 18.26225 | 534 ft | 5 kts | 298° |
| 2026-05-07 14:22 | 42.56229 | 18.26118 | 534 ft | 16 kts | 298° |
| 2026-05-07 14:22 | 42.56280 | 18.25991 | 534 ft | 14 kts | 298° |
| 2026-05-07 14:23 | 42.56325 | 18.25877 | 534 ft | 13 kts | 297° |
| 2026-05-07 14:23 | 42.56374 | 18.25753 | 534 ft | 19 kts | 299° |
| 2026-05-07 14:23 | 42.56435 | 18.25598 | 534 ft | 18 kts | 298° |
| 2026-05-07 14:23 | 42.56491 | 18.25458 | 534 ft | 16 kts | 298° |
| 2026-05-07 14:24 | 42.56543 | 18.25326 | 534 ft | 19 kts | 298° |
| 2026-05-07 14:24 | 42.56612 | 18.25157 | 534 ft | 20 kts | 298° |
| 2026-05-07 14:24 | 42.56672 | 18.25004 | 533 ft | 18 kts | 298° |
| 2026-05-07 14:24 | 42.56727 | 18.24863 | 534 ft | 16 kts | 298° |
| 2026-05-07 14:25 | 42.56772 | 18.24748 | 534 ft | 9 kts | 297° |
| 2026-05-07 14:25 | 42.56799 | 18.24698 | 534 ft | 0 kts | 320° |
| 2026-05-07 14:26 | 42.56806 | 18.24691 | 534 ft | 6 kts | 324° |
| 2026-05-07 14:26 | 42.56874 | 18.24675 | 533 ft | 11 kts | 12° |
| 2026-05-07 14:26 | 42.56925 | 18.24731 | 533 ft | 9 kts | 61° |
| 2026-05-07 14:26 | 42.56931 | 18.24815 | 533 ft | 10 kts | 106° |
| 2026-05-07 14:27 | 42.56921 | 18.24846 | 533 ft | 0 kts | 116° |
| 2026-05-07 14:27 | 42.56920 | 18.24848 | 533 ft | 1 kts | 116° |
| 2026-05-07 14:27 | 42.56915 | 18.24861 | 533 ft | 2 kts | 116° |
| 2026-05-07 14:27 | 42.56905 | 18.24889 | 533 ft | 6 kts | 116° |
| 2026-05-07 14:28 | 42.56795 | 18.25166 | 531 ft | 68 kts | 118° |
| 2026-05-07 14:28 | 42.56475 | 18.25972 | 535 ft | 124 kts | 118° |
| 2026-05-07 14:28 | 42.55998 | 18.27192 | 598 ft | 162 kts | 117° |
| 2026-05-07 14:28 | 42.55505 | 18.28499 | 1339 ft | 155 kts | 117° |
| 2026-05-07 14:29 | 42.54995 | 18.29789 | 1983 ft | 160 kts | 120° |
| 2026-05-07 14:29 | 42.54429 | 18.31212 | 2243 ft | 182 kts | 121° |
| 2026-05-07 14:29 | 42.53760 | 18.32778 | 2588 ft | 199 kts | 133° |
| 2026-05-07 14:29 | 42.52596 | 18.33681 | 3165 ft | 198 kts | 177° |
| 2026-05-07 14:30 | 42.51293 | 18.33157 | 3790 ft | 204 kts | 218° |
| 2026-05-07 14:30 | 42.50269 | 18.31800 | 4523 ft | 207 kts | 217° |
| 2026-05-07 14:30 | 42.48980 | 18.31017 | 5205 ft | 211 kts | 189° |
| 2026-05-07 14:30 | 42.47522 | 18.30735 | 5897 ft | 214 kts | 192° |
| 2026-05-07 14:31 | 42.46063 | 18.30277 | 6591 ft | 216 kts | 195° |
| 2026-05-07 14:31 | 42.44604 | 18.29757 | 7306 ft | 217 kts | 196° |
| 2026-05-07 14:31 | 42.43129 | 18.29229 | 7975 ft | 222 kts | 196° |
| 2026-05-07 14:31 | 42.41627 | 18.28704 | 8679 ft | 224 kts | 196° |
| 2026-05-07 14:32 | 42.40197 | 18.27904 | 9363 ft | 224 kts | 220° |
| 2026-05-07 14:32 | 42.39298 | 18.26200 | 10023 ft | 230 kts | 251° |
| 2026-05-07 14:32 | 42.39253 | 18.23944 | 10274 ft | 257 kts | 281° |
| 2026-05-07 14:32 | 42.39776 | 18.21521 | 10587 ft | 277 kts | 284° |
| 2026-05-07 14:33 | 42.40378 | 18.19015 | 11217 ft | 282 kts | 285° |
| 2026-05-07 14:33 | 42.41000 | 18.16486 | 11949 ft | 284 kts | 285° |
| 2026-05-07 14:33 | 42.41622 | 18.13938 | 12701 ft | 286 kts | 285° |
| 2026-05-07 14:33 | 42.42239 | 18.11370 | 13351 ft | 292 kts | 285° |
| 2026-05-07 14:34 | 42.42878 | 18.08648 | 13493 ft | 315 kts | 284° |
| 2026-05-07 14:34 | 42.43552 | 18.05735 | 13804 ft | 331 kts | 284° |
| 2026-05-07 14:34 | 42.44247 | 18.02731 | 14329 ft | 337 kts | 284° |
| 2026-05-07 14:34 | 42.44946 | 17.99728 | 14896 ft | 340 kts | 284° |
| 2026-05-07 14:35 | 42.45660 | 17.96663 | 15485 ft | 343 kts | 284° |
| 2026-05-07 14:35 | 42.46378 | 17.93563 | 16072 ft | 346 kts | 284° |
| 2026-05-07 14:35 | 42.47100 | 17.90427 | 16649 ft | 349 kts | 284° |
| 2026-05-07 14:35 | 42.47825 | 17.87272 | 17205 ft | 352 kts | 284° |
| 2026-05-07 14:36 | 42.48556 | 17.84087 | 17774 ft | 356 kts | 284° |
| 2026-05-07 14:36 | 42.49292 | 17.80876 | 18331 ft | 359 kts | 284° |
| 2026-05-07 14:36 | 42.50036 | 17.77636 | 18812 ft | 361 kts | 284° |
| 2026-05-07 14:36 | 42.50783 | 17.74369 | 19296 ft | 364 kts | 284° |
| 2026-05-07 14:37 | 42.51527 | 17.71117 | 19751 ft | 367 kts | 284° |
| 2026-05-07 14:37 | 42.53050 | 17.64450 | 20681 ft | 373 kts | 283° |
| 2026-05-07 14:37 | 42.53819 | 17.61083 | 21147 ft | 376 kts | 285° |
| 2026-05-07 14:38 | 42.54880 | 17.57810 | 21591 ft | 383 kts | 295° |
| 2026-05-07 14:38 | 42.56395 | 17.54799 | 22035 ft | 389 kts | 302° |
| 2026-05-07 14:38 | 42.58032 | 17.51849 | 22477 ft | 392 kts | 302° |
| 2026-05-07 14:38 | 42.59675 | 17.48887 | 22907 ft | 394 kts | 302° |
| 2026-05-07 14:39 | 42.61329 | 17.45895 | 23328 ft | 397 kts | 302° |
| 2026-05-07 14:39 | 42.62989 | 17.42881 | 23746 ft | 400 kts | 302° |
| 2026-05-07 14:39 | 42.64660 | 17.39850 | 24097 ft | 401 kts | 302° |
| 2026-05-07 14:39 | 42.66332 | 17.36812 | 24513 ft | 402 kts | 302° |
| 2026-05-07 14:40 | 42.68006 | 17.33760 | 24909 ft | 403 kts | 302° |
| 2026-05-07 14:40 | 42.69677 | 17.30707 | 25279 ft | 403 kts | 302° |
| 2026-05-07 14:40 | 42.71352 | 17.27639 | 25659 ft | 404 kts | 302° |
| 2026-05-07 14:40 | 42.73029 | 17.24566 | 26026 ft | 405 kts | 302° |
| 2026-05-07 14:41 | 42.74714 | 17.21483 | 26388 ft | 407 kts | 302° |
| 2026-05-07 14:41 | 42.76403 | 17.18388 | 26743 ft | 408 kts | 302° |
| 2026-05-07 14:41 | 42.78098 | 17.15284 | 27094 ft | 409 kts | 302° |
| 2026-05-07 14:41 | 42.79798 | 17.12171 | 27445 ft | 410 kts | 302° |
| 2026-05-07 14:42 | 42.81503 | 17.09049 | 27789 ft | 412 kts | 302° |
| 2026-05-07 14:42 | 42.83216 | 17.05908 | 28133 ft | 413 kts | 302° |
| 2026-05-07 14:42 | 42.84926 | 17.02762 | 28492 ft | 413 kts | 302° |
| 2026-05-07 14:42 | 42.86636 | 16.99609 | 28843 ft | 414 kts | 301° |
| 2026-05-07 14:43 | 42.88350 | 16.96443 | 29171 ft | 415 kts | 301° |
| 2026-05-07 14:43 | 42.90065 | 16.93272 | 29477 ft | 416 kts | 301° |
| 2026-05-07 14:43 | 42.91763 | 16.90133 | 29774 ft | 417 kts | 302° |
| 2026-05-07 14:43 | 42.93487 | 16.86943 | 30074 ft | 419 kts | 302° |
| 2026-05-07 14:44 | 42.95219 | 16.83739 | 30327 ft | 420 kts | 301° |
| 2026-05-07 14:44 | 42.96956 | 16.80527 | 30571 ft | 421 kts | 301° |
| 2026-05-07 14:44 | 42.98694 | 16.77307 | 30887 ft | 421 kts | 301° |
| 2026-05-07 14:44 | 43.00423 | 16.74106 | 31252 ft | 418 kts | 301° |
| 2026-05-07 14:45 | 43.02146 | 16.70909 | 31606 ft | 416 kts | 301° |
| 2026-05-07 14:45 | 43.03857 | 16.67724 | 31971 ft | 415 kts | 300° |
| 2026-05-07 14:45 | 43.05558 | 16.64548 | 32307 ft | 413 kts | 300° |
| 2026-05-07 14:45 | 43.07253 | 16.61383 | 32603 ft | 413 kts | 300° |
| 2026-05-07 14:46 | 43.08947 | 16.58214 | 32910 ft | 412 kts | 300° |
| 2026-05-07 14:46 | 43.10636 | 16.55051 | 33201 ft | 412 kts | 300° |
| 2026-05-07 14:46 | 43.12365 | 16.51925 | 33513 ft | 413 kts | 302° |
| 2026-05-07 14:46 | 43.14183 | 16.48877 | 33813 ft | 414 kts | 303° |
| 2026-05-07 14:47 | 43.16055 | 16.45876 | 34091 ft | 414 kts | 304° |
| 2026-05-07 14:47 | 43.17946 | 16.42903 | 34347 ft | 414 kts | 304° |
| 2026-05-07 14:47 | 43.19834 | 16.39929 | 34604 ft | 413 kts | 304° |
| 2026-05-07 14:47 | 43.21708 | 16.36939 | 34844 ft | 413 kts | 304° |
| 2026-05-07 14:48 | 43.23564 | 16.33936 | 35104 ft | 412 kts | 304° |
| 2026-05-07 14:48 | 43.25406 | 16.30921 | 35304 ft | 413 kts | 303° |
| 2026-05-07 14:48 | 43.27252 | 16.27882 | 35472 ft | 414 kts | 303° |
| 2026-05-07 14:48 | 43.29072 | 16.24883 | 35653 ft | 414 kts | 303° |
| 2026-05-07 14:49 | 43.30921 | 16.21839 | 35846 ft | 415 kts | 303° |
| 2026-05-07 14:49 | 43.32771 | 16.18797 | 36007 ft | 415 kts | 304° |
| 2026-05-07 14:49 | 43.36467 | 16.12718 | 36058 ft | 414 kts | 304° |
| 2026-05-07 14:50 | 43.40159 | 16.06638 | 36061 ft | 413 kts | 303° |
| 2026-05-07 14:50 | 43.43842 | 16.00569 | 36053 ft | 413 kts | 303° |
| 2026-05-07 14:51 | 43.47497 | 15.94529 | 36050 ft | 413 kts | 303° |
| 2026-05-07 14:51 | 43.51174 | 15.88439 | 36049 ft | 413 kts | 303° |
| 2026-05-07 14:52 | 48.48312 | 3.87353 | 35750 ft | 413 kts | 7° |
| 2026-05-07 14:52 | 48.51216 | 3.87951 | 35704 ft | 436 kts | 5° |
| 2026-05-07 14:52 | 48.54346 | 3.88350 | 34648 ft | 457 kts | 359° |
| 2026-05-07 14:52 | 48.57509 | 3.88125 | 34725 ft | 456 kts | 354° |
| 2026-05-07 14:53 | 48.60643 | 3.87883 | 35303 ft | 448 kts | 355° |
| 2026-05-07 14:53 | 48.63749 | 3.87682 | 35674 ft | 445 kts | 355° |
| 2026-05-07 14:53 | 48.66840 | 3.87432 | 35926 ft | 443 kts | 351° |
| 2026-05-07 14:53 | 48.69858 | 3.86547 | 36042 ft | 441 kts | 340° |
| 2026-05-07 14:54 | 48.75277 | 3.82500 | 36058 ft | 433 kts | 320° |
| 2026-05-07 14:54 | 48.79684 | 3.76334 | 36059 ft | 431 kts | 313° |
| 2026-05-07 14:55 | 48.83966 | 3.69970 | 36059 ft | 431 kts | 313° |
| 2026-05-07 14:55 | 48.88246 | 3.63610 | 36057 ft | 430 kts | 313° |
| 2026-05-07 14:56 | 48.92489 | 3.57260 | 36057 ft | 430 kts | 313° |
| 2026-05-07 14:56 | 48.96746 | 3.50858 | 36057 ft | 430 kts | 313° |
| 2026-05-07 14:57 | 49.01001 | 3.44444 | 36058 ft | 430 kts | 313° |
| 2026-05-07 14:57 | 49.05248 | 3.38028 | 36058 ft | 430 kts | 313° |
| 2026-05-07 14:58 | 49.09498 | 3.31597 | 36054 ft | 430 kts | 313° |
| 2026-05-07 14:58 | 49.13748 | 3.25150 | 36056 ft | 430 kts | 313° |
| 2026-05-07 14:59 | 49.17997 | 3.18692 | 36062 ft | 430 kts | 313° |
| 2026-05-07 14:59 | 49.22245 | 3.12234 | 36063 ft | 431 kts | 313° |
| 2026-05-07 15:00 | 49.26479 | 3.05753 | 36081 ft | 431 kts | 312° |
| 2026-05-07 15:00 | 49.30710 | 2.99255 | 36073 ft | 431 kts | 312° |
| 2026-05-07 15:01 | 49.34938 | 2.92751 | 36077 ft | 431 kts | 312° |
| 2026-05-07 15:01 | 49.39132 | 2.86277 | 36070 ft | 430 kts | 312° |
| 2026-05-07 15:02 | 49.43346 | 2.79758 | 36068 ft | 430 kts | 312° |
| 2026-05-07 15:02 | 49.47568 | 2.73224 | 36069 ft | 431 kts | 312° |
| 2026-05-07 15:03 | 49.51785 | 2.66687 | 36078 ft | 430 kts | 312° |
| 2026-05-07 15:03 | 49.55996 | 2.60129 | 36073 ft | 430 kts | 312° |
| 2026-05-07 15:04 | 49.60203 | 2.53559 | 36068 ft | 430 kts | 311° |
| 2026-05-07 15:04 | 49.64214 | 2.46729 | 36070 ft | 429 kts | 308° |
| 2026-05-07 15:05 | 49.68017 | 2.39640 | 36070 ft | 429 kts | 307° |
| 2026-05-07 15:05 | 49.71790 | 2.32572 | 36071 ft | 429 kts | 307° |
| 2026-05-07 15:06 | 49.75639 | 2.25506 | 36086 ft | 429 kts | 308° |
| 2026-05-07 15:06 | 49.79507 | 2.18459 | 36080 ft | 430 kts | 308° |
| 2026-05-07 15:07 | 49.83372 | 2.11397 | 36078 ft | 430 kts | 308° |
| 2026-05-07 15:07 | 49.87223 | 2.04310 | 36039 ft | 431 kts | 307° |
| 2026-05-07 15:08 | 49.89149 | 2.00753 | 35715 ft | 429 kts | 307° |
| 2026-05-07 15:08 | 49.91058 | 1.97225 | 35196 ft | 425 kts | 307° |
| 2026-05-07 15:08 | 49.92953 | 1.93719 | 34666 ft | 422 kts | 307° |
| 2026-05-07 15:08 | 49.94832 | 1.90238 | 34148 ft | 420 kts | 307° |
| 2026-05-07 15:09 | 49.96700 | 1.86772 | 33575 ft | 417 kts | 307° |
| 2026-05-07 15:09 | 49.98548 | 1.83344 | 33071 ft | 412 kts | 307° |
| 2026-05-07 15:09 | 50.00355 | 1.79985 | 32548 ft | 408 kts | 307° |
| 2026-05-07 15:09 | 50.02165 | 1.76611 | 32056 ft | 404 kts | 307° |
| 2026-05-07 15:10 | 50.03957 | 1.73260 | 31565 ft | 401 kts | 307° |
| 2026-05-07 15:10 | 50.05731 | 1.69942 | 31070 ft | 398 kts | 307° |
| 2026-05-07 15:10 | 50.07579 | 1.66760 | 30575 ft | 396 kts | 314° |
| 2026-05-07 15:10 | 50.09648 | 1.63931 | 30072 ft | 394 kts | 316° |
| 2026-05-07 15:11 | 50.11710 | 1.61146 | 29533 ft | 390 kts | 316° |
| 2026-05-07 15:11 | 50.13749 | 1.58384 | 29069 ft | 386 kts | 316° |
| 2026-05-07 15:11 | 50.15758 | 1.55655 | 28614 ft | 381 kts | 316° |
| 2026-05-07 15:11 | 50.17745 | 1.52955 | 28166 ft | 376 kts | 316° |
| 2026-05-07 15:12 | 50.19707 | 1.50282 | 27728 ft | 372 kts | 316° |
| 2026-05-07 15:12 | 50.21646 | 1.47636 | 27297 ft | 368 kts | 316° |
| 2026-05-07 15:12 | 50.23563 | 1.45024 | 26875 ft | 363 kts | 316° |
| 2026-05-07 15:12 | 50.25458 | 1.42443 | 26477 ft | 359 kts | 316° |
| 2026-05-07 15:13 | 50.27301 | 1.39922 | 26073 ft | 355 kts | 316° |
| 2026-05-07 15:13 | 50.29145 | 1.37396 | 25662 ft | 352 kts | 316° |
| 2026-05-07 15:13 | 50.30981 | 1.34876 | 25252 ft | 350 kts | 316° |
| 2026-05-07 15:13 | 50.32801 | 1.32373 | 24826 ft | 348 kts | 316° |
| 2026-05-07 15:14 | 50.34620 | 1.29875 | 24397 ft | 346 kts | 316° |
| 2026-05-07 15:14 | 50.36425 | 1.27388 | 23969 ft | 345 kts | 316° |
| 2026-05-07 15:14 | 50.38156 | 1.25002 | 23527 ft | 344 kts | 316° |
| 2026-05-07 15:14 | 50.39949 | 1.22530 | 23036 ft | 342 kts | 316° |
| 2026-05-07 15:15 | 50.41733 | 1.20068 | 22622 ft | 339 kts | 316° |
| 2026-05-07 15:15 | 50.43475 | 1.17662 | 22185 ft | 337 kts | 316° |
| 2026-05-07 15:15 | 50.45232 | 1.15237 | 21761 ft | 335 kts | 316° |
| 2026-05-07 15:15 | 50.46978 | 1.12830 | 21338 ft | 333 kts | 316° |
| 2026-05-07 15:16 | 50.48715 | 1.10427 | 20916 ft | 331 kts | 316° |
| 2026-05-07 15:16 | 50.50438 | 1.08037 | 20497 ft | 330 kts | 316° |
| 2026-05-07 15:16 | 50.52098 | 1.05568 | 20085 ft | 327 kts | 310° |
| 2026-05-07 15:16 | 50.53645 | 1.02954 | 19685 ft | 326 kts | 310° |
| 2026-05-07 15:17 | 50.55189 | 1.00352 | 19278 ft | 325 kts | 311° |
| 2026-05-07 15:17 | 50.56731 | 0.97753 | 18869 ft | 325 kts | 311° |
| 2026-05-07 15:17 | 50.58273 | 0.95156 | 18466 ft | 324 kts | 311° |
| 2026-05-07 15:17 | 50.59811 | 0.92563 | 18037 ft | 324 kts | 311° |
| 2026-05-07 15:18 | 50.61343 | 0.89976 | 17629 ft | 322 kts | 311° |
| 2026-05-07 15:18 | 50.62868 | 0.87395 | 17236 ft | 321 kts | 311° |
| 2026-05-07 15:18 | 50.64382 | 0.84821 | 16848 ft | 319 kts | 311° |
| 2026-05-07 15:18 | 50.65892 | 0.82258 | 16464 ft | 318 kts | 311° |
| 2026-05-07 15:19 | 50.66888 | 0.80567 | 16206 ft | 318 kts | 311° |
| 2026-05-07 15:19 | 50.68371 | 0.77965 | 15751 ft | 321 kts | 309° |
| 2026-05-07 15:19 | 50.69809 | 0.75239 | 15213 ft | 325 kts | 307° |
| 2026-05-07 15:19 | 50.71227 | 0.72439 | 14698 ft | 328 kts | 307° |
| 2026-05-07 15:20 | 50.73119 | 0.68643 | 14247 ft | 325 kts | 307° |
| 2026-05-07 15:20 | 50.74038 | 0.66805 | 14151 ft | 319 kts | 307° |
| 2026-05-07 15:20 | 50.75405 | 0.64082 | 13916 ft | 314 kts | 307° |
| 2026-05-07 15:20 | 50.76762 | 0.61395 | 13577 ft | 312 kts | 307° |
| 2026-05-07 15:21 | 50.78118 | 0.58720 | 13210 ft | 310 kts | 307° |
| 2026-05-07 15:21 | 50.79450 | 0.56100 | 12860 ft | 309 kts | 307° |
| 2026-05-07 15:21 | 50.80783 | 0.53476 | 12294 ft | 304 kts | 307° |
| 2026-05-07 15:21 | 50.82102 | 0.50878 | 11648 ft | 302 kts | 307° |
| 2026-05-07 15:22 | 50.83410 | 0.48300 | 11008 ft | 299 kts | 307° |
| 2026-05-07 15:22 | 50.84703 | 0.45746 | 10374 ft | 297 kts | 307° |
| 2026-05-07 15:22 | 50.85988 | 0.43205 | 9711 ft | 295 kts | 307° |
| 2026-05-07 15:22 | 50.87263 | 0.40683 | 9024 ft | 292 kts | 307° |
| 2026-05-07 15:23 | 50.88522 | 0.38191 | 8388 ft | 288 kts | 307° |
| 2026-05-07 15:23 | 50.89763 | 0.35737 | 7811 ft | 283 kts | 307° |
| 2026-05-07 15:23 | 50.90979 | 0.33326 | 7330 ft | 278 kts | 307° |
| 2026-05-07 15:23 | 50.92166 | 0.30957 | 7035 ft | 274 kts | 307° |
| 2026-05-07 15:24 | 50.93345 | 0.28578 | 6987 ft | 275 kts | 307° |
| 2026-05-07 15:24 | 50.94524 | 0.26190 | 6986 ft | 275 kts | 307° |
| 2026-05-07 15:24 | 50.95455 | 0.23566 | 6986 ft | 274 kts | 285° |
| 2026-05-07 15:24 | 50.95710 | 0.20581 | 6992 ft | 273 kts | 272° |
| 2026-05-07 15:25 | 50.95798 | 0.17568 | 6996 ft | 274 kts | 271° |
| 2026-05-07 15:25 | 50.95868 | 0.14587 | 7002 ft | 263 kts | 271° |
| 2026-05-07 15:25 | 50.95929 | 0.11779 | 7011 ft | 247 kts | 271° |
| 2026-05-07 15:25 | 50.95988 | 0.09096 | 7022 ft | 242 kts | 271° |
| 2026-05-07 15:26 | 50.96046 | 0.06427 | 7032 ft | 242 kts | 271° |
| 2026-05-07 15:26 | 50.96099 | 0.03766 | 7039 ft | 242 kts | 271° |
| 2026-05-07 15:26 | 50.96150 | 0.01131 | 7047 ft | 242 kts | 271° |
| 2026-05-07 15:26 | 50.96205 | -0.01525 | 6917 ft | 240 kts | 271° |
| 2026-05-07 15:27 | 50.96252 | -0.04173 | 6594 ft | 240 kts | 271° |
| 2026-05-07 15:27 | 50.96288 | -0.06812 | 6246 ft | 239 kts | 271° |
| 2026-05-07 15:27 | 50.96318 | -0.09440 | 5899 ft | 238 kts | 271° |
| 2026-05-07 15:27 | 50.96347 | -0.12058 | 5562 ft | 237 kts | 271° |
| 2026-05-07 15:28 | 50.96379 | -0.14666 | 5232 ft | 236 kts | 271° |
| 2026-05-07 15:28 | 50.96411 | -0.17261 | 5018 ft | 234 kts | 271° |
| 2026-05-07 15:28 | 50.96444 | -0.19843 | 5004 ft | 235 kts | 271° |
| 2026-05-07 15:28 | 50.96478 | -0.22445 | 5005 ft | 236 kts | 271° |
| 2026-05-07 15:29 | 50.96512 | -0.25045 | 4992 ft | 235 kts | 271° |
| 2026-05-07 15:29 | 50.96547 | -0.27630 | 4672 ft | 234 kts | 271° |
| 2026-05-07 15:29 | 50.96582 | -0.30204 | 4335 ft | 233 kts | 271° |
| 2026-05-07 15:29 | 50.96619 | -0.32765 | 4004 ft | 232 kts | 271° |
| 2026-05-07 15:30 | 50.96660 | -0.35283 | 3668 ft | 231 kts | 271° |
| 2026-05-07 15:30 | 50.96706 | -0.37826 | 3349 ft | 230 kts | 271° |
| 2026-05-07 15:30 | 50.96754 | -0.40348 | 3062 ft | 227 kts | 271° |
| 2026-05-07 15:30 | 50.96812 | -0.42852 | 3004 ft | 227 kts | 271° |
| 2026-05-07 15:31 | 50.96879 | -0.45365 | 3004 ft | 228 kts | 271° |
| 2026-05-07 15:31 | 50.96948 | -0.47881 | 3001 ft | 228 kts | 271° |
| 2026-05-07 15:31 | 50.97012 | -0.50400 | 3000 ft | 228 kts | 271° |
| 2026-05-07 15:31 | 50.97074 | -0.52919 | 2998 ft | 228 kts | 271° |
| 2026-05-07 15:32 | 50.97131 | -0.55437 | 2997 ft | 228 kts | 271° |
| 2026-05-07 15:32 | 50.97384 | -0.57914 | 2995 ft | 230 kts | 291° |
| 2026-05-07 15:32 | 50.98300 | -0.59981 | 2994 ft | 231 kts | 320° |
| 2026-05-07 15:32 | 50.99709 | -0.61085 | 2992 ft | 231 kts | 349° |
| 2026-05-07 15:33 | 51.01300 | -0.60968 | 2993 ft | 232 kts | 19° |
| 2026-05-07 15:33 | 51.02658 | -0.59654 | 2993 ft | 230 kts | 47° |
| 2026-05-07 15:33 | 51.03698 | -0.57719 | 2994 ft | 230 kts | 51° |
| 2026-05-07 15:33 | 51.04694 | -0.55827 | 2978 ft | 216 kts | 51° |
| 2026-05-07 15:34 | 51.05627 | -0.54055 | 2977 ft | 203 kts | 51° |
| 2026-05-07 15:34 | 51.06507 | -0.52382 | 2977 ft | 194 kts | 51° |
| 2026-05-07 15:34 | 51.07367 | -0.50747 | 2998 ft | 191 kts | 51° |
| 2026-05-07 15:34 | 51.08219 | -0.49126 | 2987 ft | 191 kts | 51° |
| 2026-05-07 15:35 | 51.09068 | -0.47512 | 2983 ft | 190 kts | 51° |
| 2026-05-07 15:35 | 51.09916 | -0.45899 | 2980 ft | 190 kts | 51° |
| 2026-05-07 15:35 | 51.10765 | -0.44286 | 2979 ft | 191 kts | 51° |
| 2026-05-07 15:35 | 51.11493 | -0.42543 | 2969 ft | 189 kts | 69° |
| 2026-05-07 15:36 | 51.11832 | -0.40522 | 2751 ft | 188 kts | 79° |
| 2026-05-07 15:36 | 51.12108 | -0.38506 | 2517 ft | 189 kts | 80° |
| 2026-05-07 15:36 | 51.12391 | -0.36461 | 2249 ft | 190 kts | 80° |
| 2026-05-07 15:36 | 51.12676 | -0.34417 | 1995 ft | 185 kts | 78° |
| 2026-05-07 15:37 | 51.12940 | -0.32534 | 1755 ft | 165 kts | 80° |
| 2026-05-07 15:37 | 51.13179 | -0.30823 | 1519 ft | 154 kts | 80° |
| 2026-05-07 15:37 | 51.13404 | -0.29206 | 1320 ft | 147 kts | 81° |
| 2026-05-07 15:37 | 51.13623 | -0.27626 | 1128 ft | 144 kts | 81° |
| 2026-05-07 15:38 | 51.13837 | -0.26089 | 928 ft | 140 kts | 82° |
| 2026-05-07 15:38 | 51.14046 | -0.24584 | 753 ft | 137 kts | 82° |
| 2026-05-07 15:38 | 51.14248 | -0.23098 | 567 ft | 134 kts | 81° |
| 2026-05-07 15:38 | 51.14458 | -0.21640 | 347 ft | 135 kts | 78° |
| 2026-05-07 15:39 | 51.14653 | -0.20206 | 219 ft | 130 kts | 79° |
| 2026-05-07 15:39 | 51.14821 | -0.18994 | 211 ft | 92 kts | 77° |
| 2026-05-07 15:39 | 51.14923 | -0.18256 | 208 ft | 40 kts | 77° |
| 2026-05-07 15:39 | 51.15009 | -0.17903 | 217 ft | 28 kts | 56° |
| 2026-05-07 15:40 | 51.15087 | -0.17765 | 206 ft | 11 kts | 22° |
| 2026-05-07 15:40 | 51.15143 | -0.17767 | 205 ft | 0 kts | 353° |
| 2026-05-07 15:41 | 51.15144 | -0.17767 | 205 ft | 2 kts | 353° |
| 2026-05-07 15:41 | 51.15212 | -0.17785 | 207 ft | 13 kts | 341° |
| 2026-05-07 15:41 | 51.15239 | -0.17901 | 207 ft | 12 kts | 259° |
| 2026-05-07 15:42 | 51.15223 | -0.18019 | 207 ft | 10 kts | 258° |
| 2026-05-07 15:42 | 51.15259 | -0.18104 | 206 ft | 11 kts | 342° |
| 2026-05-07 15:42 | 51.15333 | -0.18131 | 207 ft | 11 kts | 348° |
| 2026-05-07 15:42 | 51.15407 | -0.18155 | 204 ft | 10 kts | 348° |
| 2026-05-07 15:43 | 51.15457 | -0.18108 | 204 ft | 8 kts | 70° |
| 2026-05-07 15:43 | 51.15470 | -0.18022 | 206 ft | 8 kts | 78° |
| 2026-05-07 15:43 | 51.15485 | -0.17909 | 206 ft | 11 kts | 78° |
| 2026-05-07 15:43 | 51.15502 | -0.17780 | 204 ft | 8 kts | 78° |
| 2026-05-07 15:44 | 51.15540 | -0.17750 | 206 ft | 6 kts | 351° |
| 2026-05-07 15:44 | 51.15567 | -0.17759 | 204 ft | 1 kts | 348° |
| 2026-05-07 15:44 | 51.15569 | -0.17760 | 204 ft | 0 kts | 348° |
| 2026-05-07 15:44 | 51.15572 | -0.17761 | 204 ft | 0 kts | 348° |